Archival Weather

Republic

Farmingdale, New York (KFRG)

Report from: Thursday, January 25, 2024 12:53 AM EST
Current time: Friday, June 21, 2024 6:52 PM EDT

Current weather – Weather history – Daily summaries
Weather forecast

Temperature8.3°C (46.9°F)
Wind chill6.4°C (43.6°F)
Dew point7.2°C (45.0°F)
Winds 6 kts (3.1 m/s, 6.9 mph) South-Southwest (200°)
Visibility8 mi. (12.9 km)
Clouds Ceiling: Overcast 4,000 ft. (1,219 m)
Altimeter30.19 in.Hg (1022 mB)
Relative humidity93 %
Density altitude-968 ft. (-295 m)
Sea-level pressure102.2 kPa (1022 mB, 30.19 in.Hg)
Max temp last 6 hours8.9°C (48.0°F)
Min temp last 6 hours6.1°C (43.0°F)
Remarks Fully automated report
Automated weather observing station with precipitation discriminator
Present weather sensor not operating
Pressure falling more quickly
Flight conditions Visual Meteorological Conditions
Raw dataKFRG 250553Z AUTO 20006KT 8SM OVC040 08/07 A3019 RMK AO2 SLP224 T00830072 10089 20061 58029 PWINO
An error has occurred. This application may no longer respond until reloaded. Reload 🗙